Time;durP1;ratioP1;P1;durP2;ratioP2;P2;SDS_P1;SDS_P2;PMS_P1;PMS_P2;Temp;Humidity;BMP_temperature;BMP_pressure;BME280_temperature;BME280_humidity;BME280_pressure;Samples;Min_cycle;Max_cycle;Signal;HPM_P1;HPM_P2
2023/09/10 00:01:21;;;;;;;0.60;0.60;;;;;;;10.08;100.00;99914.19;6242987;23;20028;-83
2023/09/10 00:03:48;;;;;;;0.60;0.60;;;;;;;10.03;100.00;99908.63;6216109;23;20039;-82
2023/09/10 00:06:16;;;;;;;0.50;0.50;;;;;;;10.01;100.00;99910.72;6243235;23;20024;-82
2023/09/10 00:08:43;;;;;;;0.50;0.50;;;;;;;9.99;100.00;99904.72;6242721;23;20103;-83
2023/09/10 00:11:10;;;;;;;0.50;0.50;;;;;;;9.89;100.00;99896.28;6243075;23;20438;-83
2023/09/10 00:13:38;;;;;;;0.50;0.50;;;;;;;9.92;100.00;99903.94;6191512;23;20090;-83
2023/09/10 00:16:06;;;;;;;0.60;0.60;;;;;;;9.89;100.00;99905.19;6243082;23;20467;-82
2023/09/10 00:18:37;;;;;;;0.50;0.50;;;;;;;9.87;100.00;99907.28;6242858;23;20019;-82
2023/09/10 00:21:07;;;;;;;0.50;0.50;;;;;;;9.87;100.00;99909.97;6216504;23;20024;-82
2023/09/10 00:23:34;;;;;;;0.60;0.60;;;;;;;9.81;100.00;99904.63;6242769;23;20039;-82
2023/09/10 00:26:01;;;;;;;0.57;0.57;;;;;;;9.81;100.00;99904.63;6243069;23;20028;-82
2023/09/10 00:28:28;;;;;;;0.50;0.50;;;;;;;9.72;100.00;99895.97;6242505;23;20019;-82
2023/09/10 00:30:55;;;;;;;0.50;0.50;;;;;;;9.64;100.00;99909.72;6242675;23;20032;-82
2023/09/10 00:33:23;;;;;;;0.57;0.57;;;;;;;9.58;100.00;99897.13;6242726;23;20024;-81
2023/09/10 00:35:50;;;;;;;0.60;0.60;;;;;;;9.55;100.00;99899.19;6243308;23;20020;-82
2023/09/10 00:38:17;;;;;;;0.50;0.50;;;;;;;9.52;100.00;99902.31;6216134;23;20020;-83
2023/09/10 00:40:44;;;;;;;0.50;0.50;;;;;;;9.50;100.00;99903.59;6242809;23;20031;-83
2023/09/10 00:43:11;;;;;;;0.60;0.60;;;;;;;9.44;100.00;99907.13;6242905;23;20030;-82
2023/09/10 00:45:41;;;;;;;0.50;0.50;;;;;;;9.45;100.00;99904.22;6242792;23;20052;-83
2023/09/10 00:48:09;;;;;;;0.50;0.50;;;;;;;9.43;100.00;99909.00;6216138;23;20103;-82
2023/09/10 00:50:36;;;;;;;0.60;0.60;;;;;;;9.41;100.00;99907.56;6242164;23;20054;-83
2023/09/10 00:53:04;;;;;;;0.52;0.52;;;;;;;9.37;100.00;99907.16;6216823;23;20020;-83
2023/09/10 00:55:34;;;;;;;0.50;0.50;;;;;;;9.34;100.00;99907.56;6244682;23;20031;-84
2023/09/10 00:58:02;;;;;;;0.57;0.57;;;;;;;9.36;100.00;99910.06;6218976;23;20024;-83
2023/09/10 01:00:32;;;;;;;0.52;0.52;;;;;;;9.35;100.00;99905.72;6244367;23;20356;-82
2023/09/10 01:03:00;;;;;;;0.50;0.50;;;;;;;9.42;100.00;99906.50;6243704;23;20100;-82
2023/09/10 01:05:29;;;;;;;0.50;0.50;;;;;;;9.37;100.00;99909.88;6242789;23;20020;-82
2023/09/10 01:07:57;;;;;;;0.55;0.55;;;;;;;9.37;100.00;99912.56;6243161;23;20066;-81
2023/09/10 01:10:32;;;;;;;0.60;0.60;;;;;;;9.35;100.00;99903.84;6242814;23;20040;-83
2023/09/10 01:13:12;;;;;;;0.50;0.50;;;;;;;9.29;100.00;99907.38;6216615;23;20020;-82
2023/09/10 01:16:02;;;;;;;0.60;0.60;;;;;;;9.30;100.00;99914.44;6216437;23;20031;-83
2023/09/10 01:18:59;;;;;;;0.50;0.50;;;;;;;9.31;100.00;99916.09;6242660;23;20089;-83
2023/09/10 01:22:13;;;;;;;0.50;0.50;;;;;;;9.35;100.00;99911.13;6241352;23;20023;-83
2023/09/10 01:24:46;;;;;;;0.50;0.50;;;;;;;9.38;100.00;99908.81;6072108;23;20339;-83
2023/09/10 01:27:14;;;;;;;0.60;0.60;;;;;;;9.37;100.00;99903.63;6120263;23;20528;-82
2023/09/10 01:29:45;;;;;;;0.50;0.50;;;;;;;9.31;100.00;99898.06;6119989;23;20408;-83
2023/09/10 01:32:23;;;;;;;0.50;0.50;;;;;;;9.27;100.00;99904.94;6119954;23;20370;-83
2023/09/10 01:35:07;;;;;;;0.60;0.60;;;;;;;9.24;100.00;99897.28;6096212;23;20026;-83
2023/09/10 01:37:39;;;;;;;0.50;0.50;;;;;;;9.25;100.00;99904.31;6095532;23;20462;-82
2023/09/10 01:40:09;;;;;;;0.52;0.52;;;;;;;9.21;100.00;99899.56;6120164;23;20454;-81
2023/09/10 01:42:36;;;;;;;0.50;0.50;;;;;;;9.20;100.00;99900.63;6071431;23;20022;-82
2023/09/10 01:45:04;;;;;;;0.60;0.60;;;;;;;9.18;100.00;99900.81;6119931;23;20033;-83
2023/09/10 01:47:32;;;;;;;0.60;0.60;;;;;;;9.16;100.00;99897.50;6121247;23;20408;-82
2023/09/10 01:50:00;;;;;;;0.60;0.60;;;;;;;9.14;100.00;99904.13;6097641;23;20109;-83
2023/09/10 01:52:29;;;;;;;0.60;0.60;;;;;;;9.10;100.00;99904.56;6121728;23;20054;-83
2023/09/10 01:54:56;;;;;;;0.50;0.50;;;;;;;9.03;100.00;99898.38;6122072;23;20022;-82
2023/09/10 01:57:23;;;;;;;0.50;0.50;;;;;;;8.93;100.00;99887.22;6098643;23;20029;-83
2023/09/10 01:59:51;;;;;;;0.52;0.52;;;;;;;9.01;100.00;99895.06;6217679;23;20082;-83
2023/09/10 02:02:20;;;;;;;0.50;0.50;;;;;;;9.03;100.00;99894.88;6217479;23;20031;-82
2023/09/10 02:04:50;;;;;;;0.50;0.50;;;;;;;9.04;100.00;99897.34;6192684;23;20019;-82
2023/09/10 02:07:17;;;;;;;0.60;0.60;;;;;;;9.05;100.00;99903.56;6244402;23;20359;-83
2023/09/10 02:09:47;;;;;;;0.50;0.50;;;;;;;9.06;100.00;99897.13;6243768;23;20024;-82
2023/09/10 02:12:14;;;;;;;0.60;0.60;;;;;;;9.14;100.00;99896.06;6244320;23;20027;-82
2023/09/10 02:14:47;;;;;;;0.50;0.50;;;;;;;9.20;100.00;99895.22;6244143;23;20044;-83
2023/09/10 02:17:15;;;;;;;0.60;0.60;;;;;;;9.24;100.00;99899.13;6217528;23;20537;-82
2023/09/10 02:19:44;;;;;;;0.52;0.52;;;;;;;9.30;100.00;99899.09;6217004;23;20024;-82
2023/09/10 02:22:12;;;;;;;0.60;0.60;;;;;;;9.37;100.00;99896.41;6217929;23;20044;-82
2023/09/10 02:24:39;;;;;;;0.60;0.60;;;;;;;9.49;100.00;99902.72;6217435;23;20020;-82
2023/09/10 02:27:06;;;;;;;0.60;0.60;;;;;;;9.60;100.00;99903.13;6244382;23;20032;-82
2023/09/10 02:29:35;;;;;;;0.50;0.50;;;;;;;9.69;100.00;99902.63;6217265;23;20027;-82
2023/09/10 02:32:02;;;;;;;0.55;0.55;;;;;;;9.77;100.00;99896.16;6255417;23;20028;-82
2023/09/10 02:34:29;;;;;;;0.50;0.50;;;;;;;9.86;100.00;99894.03;6220542;23;20032;-84
2023/09/10 02:37:02;;;;;;;0.50;0.50;;;;;;;9.93;100.00;99898.31;6220089;23;20024;-82
2023/09/10 02:39:29;;;;;;;0.60;0.60;;;;;;;9.97;100.00;99894.13;6198227;23;20028;-83
2023/09/10 02:41:56;;;;;;;0.50;0.50;;;;;;;9.99;100.00;99899.31;6247494;23;20115;-85
2023/09/10 02:44:23;;;;;;;0.60;0.60;;;;;;;10.02;100.00;99900.75;6218326;23;20047;-87
2023/09/10 02:46:52;;;;;;;0.50;0.50;;;;;;;10.05;100.00;99908.41;6217491;23;20075;-86
2023/09/10 02:49:19;;;;;;;0.57;0.57;;;;;;;10.07;100.00;99906.31;6245211;22;20027;-86
2023/09/10 02:51:48;;;;;;;0.50;0.50;;;;;;;9.99;100.00;99902.00;6244935;23;20400;-85
2023/09/10 02:54:15;;;;;;;0.60;0.60;;;;;;;10.03;100.00;99908.63;6218586;23;20027;-83
2023/09/10 02:56:43;;;;;;;0.60;0.60;;;;;;;10.06;100.00;99907.38;6217186;23;20092;-85
2023/09/10 02:59:20;;;;;;;0.60;0.60;;;;;;;10.08;100.00;99905.28;6192770;23;20066;-85
2023/09/10 03:01:48;;;;;;;0.60;0.60;;;;;;;10.13;100.00;99908.16;6218382;23;20070;-85
2023/09/10 03:04:15;;;;;;;0.50;0.50;;;;;;;10.18;100.00;99908.31;6245281;23;20024;-85
2023/09/10 03:06:50;;;;;;;0.60;0.60;;;;;;;10.17;100.00;99910.16;6218218;23;20074;-85
2023/09/10 03:09:18;;;;;;;0.60;0.60;;;;;;;10.22;100.00;99911.38;6261644;23;20016;-85
2023/09/10 03:11:46;;;;;;;0.50;0.50;;;;;;;10.23;100.00;99916.56;6262333;23;20024;-85
2023/09/10 03:14:13;;;;;;;0.50;0.50;;;;;;;10.22;100.00;99906.00;6218279;23;20031;-85
2023/09/10 03:16:43;;;;;;;0.50;0.50;;;;;;;10.21;100.00;99910.56;6218364;23;20042;-84
2023/09/10 03:19:12;;;;;;;0.50;0.50;;;;;;;10.16;100.00;99905.00;6218754;23;20027;-85
2023/09/10 03:21:39;;;;;;;0.50;0.50;;;;;;;10.17;100.00;99912.03;6217945;23;20024;-83
2023/09/10 03:24:07;;;;;;;0.50;0.50;;;;;;;10.20;100.00;99908.91;6218183;23;20058;-84
2023/09/10 03:26:35;;;;;;;0.50;0.50;;;;;;;10.12;100.00;99906.47;6244376;23;20027;-84
2023/09/10 03:29:02;;;;;;;0.50;0.50;;;;;;;10.14;100.00;99907.09;6217974;23;20219;-84
2023/09/10 03:31:30;;;;;;;0.50;0.50;;;;;;;10.20;100.00;99914.28;6212158;23;20134;-84
2023/09/10 03:33:58;;;;;;;0.50;0.50;;;;;;;10.25;100.00;99911.75;6213678;23;20452;-84
2023/09/10 03:36:25;;;;;;;0.60;0.60;;;;;;;10.26;100.00;99908.03;6187825;23;20024;-85
2023/09/10 03:38:52;;;;;;;0.50;0.50;;;;;;;10.33;100.00;99914.25;6214102;23;20028;-85
2023/09/10 03:41:20;;;;;;;0.50;0.50;;;;;;;10.40;100.00;99912.28;6213653;23;20028;-85
2023/09/10 03:43:47;;;;;;;0.50;0.50;;;;;;;10.46;100.00;99918.69;6213418;23;20095;-85
2023/09/10 03:46:16;;;;;;;0.50;0.50;;;;;;;10.50;100.00;99909.09;6163287;23;20024;-84
2023/09/10 03:48:43;;;;;;;0.50;0.50;;;;;;;10.49;100.00;99923.63;6212616;23;20024;-83
2023/09/10 03:51:11;;;;;;;0.50;0.50;;;;;;;10.55;100.00;99916.53;6186788;23;20102;-83
2023/09/10 03:53:38;;;;;;;0.60;0.60;;;;;;;10.54;100.00;99914.88;6162403;23;20020;-84
2023/09/10 03:56:05;;;;;;;0.60;0.60;;;;;;;10.53;100.00;99916.75;6186940;23;20107;-84
2023/09/10 03:58:33;;;;;;;0.50;0.50;;;;;;;10.57;100.00;99917.13;6186936;23;20109;-85
2023/09/10 04:01:00;;;;;;;0.60;0.60;;;;;;;10.59;100.00;99920.44;6186744;23;20020;-84
2023/09/10 04:03:27;;;;;;;0.60;0.60;;;;;;;10.60;100.00;99916.69;6161589;23;20461;-85
2023/09/10 04:05:55;;;;;;;0.60;0.60;;;;;;;10.61;100.00;99918.34;6213665;23;20035;-84
2023/09/10 04:08:23;;;;;;;0.60;0.60;;;;;;;10.69;100.00;99919.94;6111789;23;20348;-85
2023/09/10 04:10:51;;;;;;;0.50;0.50;;;;;;;10.68;100.00;99916.38;6186466;23;20027;-85
2023/09/10 04:13:18;;;;;;;0.50;0.50;;;;;;;10.65;100.00;99919.53;6186938;23;20409;-85
2023/09/10 04:15:48;;;;;;;0.50;0.50;;;;;;;10.72;100.00;99916.78;6213193;23;20440;-84
2023/09/10 04:18:17;;;;;;;0.50;0.50;;;;;;;10.78;100.00;99918.56;6162913;23;20020;-83
2023/09/10 04:20:45;;;;;;;0.60;0.60;;;;;;;10.78;99.82;99921.28;6213193;23;20478;-85
2023/09/10 04:23:15;;;;;;;0.60;0.60;;;;;;;10.76;99.46;99923.38;6161073;23;20387;-86
2023/09/10 04:25:42;;;;;;;0.50;0.50;;;;;;;10.75;99.41;99925.25;6185912;23;20028;-83
2023/09/10 04:28:13;;;;;;;0.60;0.60;;;;;;;10.71;99.13;99920.50;6211702;23;20045;-85
2023/09/10 04:31:12;;;;;;;0.60;0.60;;;;;;;10.69;99.05;99920.75;6214570;23;20044;-83
2023/09/10 04:33:59;;;;;;;0.60;0.60;;;;;;;10.62;99.24;99907.31;6190936;23;20456;-84
2023/09/10 04:36:27;;;;;;;0.50;0.50;;;;;;;10.75;99.19;99922.56;6243141;23;20103;-85
2023/09/10 04:38:55;;;;;;;0.60;0.60;;;;;;;10.81;99.40;99926.22;6243249;23;20030;-84
2023/09/10 04:41:25;;;;;;;0.50;0.50;;;;;;;10.89;99.36;99935.91;6216451;23;20020;-84
2023/09/10 04:43:52;;;;;;;0.50;0.50;;;;;;;10.95;99.18;99929.63;6216714;23;20055;-84
2023/09/10 04:46:23;;;;;;;0.60;0.60;;;;;;;10.92;98.25;99933.59;6216391;23;20024;-83
2023/09/10 04:48:50;;;;;;;0.55;0.55;;;;;;;10.86;98.18;99923.69;6192624;23;20024;-84
2023/09/10 04:51:18;;;;;;;0.60;0.60;;;;;;;10.95;98.20;99932.31;6216610;23;20026;-84
2023/09/10 04:53:46;;;;;;;0.60;0.60;;;;;;;11.06;98.29;99927.03;6216243;23;20050;-84
2023/09/10 04:56:21;;;;;;;0.50;0.50;;;;;;;11.13;97.97;99935.03;6216367;23;20103;-84
2023/09/10 04:58:48;;;;;;;0.50;0.50;;;;;;;11.12;97.70;99928.00;6216954;23;20020;-83
2023/09/10 05:01:20;;;;;;;0.50;0.50;;;;;;;11.19;97.52;99934.16;6216394;23;20030;-84
2023/09/10 05:03:47;;;;;;;0.50;0.50;;;;;;;11.30;97.44;99934.44;6190212;23;20020;-84
2023/09/10 05:06:17;;;;;;;0.60;0.60;;;;;;;11.32;96.45;99924.19;6214470;23;20108;-85
2023/09/10 05:08:45;;;;;;;0.60;0.60;;;;;;;11.24;95.68;99931.59;6214153;23;20030;-84
2023/09/10 05:11:18;;;;;;;0.60;0.60;;;;;;;11.21;95.37;99929.31;6216171;23;20019;-84
2023/09/10 05:13:51;;;;;;;0.50;0.50;;;;;;;11.22;95.17;99930.16;6240898;23;20031;-85
2023/09/10 05:16:19;;;;;;;0.50;0.50;;;;;;;11.28;95.15;99930.06;6216544;23;20024;-85
2023/09/10 05:18:47;;;;;;;0.50;0.50;;;;;;;11.39;95.03;99928.47;6217983;23;20020;-83
2023/09/10 05:21:17;;;;;;;0.60;0.60;;;;;;;11.41;94.18;99933.66;6217244;23;20050;-86
2023/09/10 05:23:44;;;;;;;0.50;0.50;;;;;;;11.39;93.97;99927.66;6216915;23;20046;-84
2023/09/10 05:26:11;;;;;;;0.50;0.50;;;;;;;11.41;93.97;99914.75;6191166;23;20028;-82
2023/09/10 05:28:39;;;;;;;0.60;0.60;;;;;;;11.53;93.54;99917.50;6215977;23;20043;-82
2023/09/10 05:31:13;;;;;;;0.60;0.60;;;;;;;11.64;92.94;99928.34;6243014;23;20024;-84
2023/09/10 05:33:41;;;;;;;0.57;0.57;;;;;;;11.60;92.30;99921.78;6216668;23;20468;-83
2023/09/10 05:36:08;;;;;;;0.50;0.50;;;;;;;11.62;92.25;99926.94;6215874;23;20043;-81
2023/09/10 05:38:36;;;;;;;0.50;0.50;;;;;;;11.67;91.61;99927.06;6215276;23;20378;-82
2023/09/10 05:41:04;;;;;;;0.50;0.50;;;;;;;11.68;91.50;99926.84;6214639;23;20024;-82
2023/09/10 05:43:32;;;;;;;0.50;0.50;;;;;;;11.80;91.53;99928.75;6213682;23;20126;-84
2023/09/10 05:46:00;;;;;;;0.60;0.60;;;;;;;11.89;91.09;99927.41;6187712;23;20763;-84
2023/09/10 05:48:34;;;;;;;0.60;0.60;;;;;;;11.97;90.85;99927.09;6213568;23;20016;-83
2023/09/10 05:51:05;;;;;;;0.60;0.60;;;;;;;12.05;90.42;99932.19;6216831;23;20024;-83
2023/09/10 05:53:44;;;;;;;0.60;0.60;;;;;;;12.06;89.67;99916.78;6216618;23;20031;-82
2023/09/10 05:56:12;;;;;;;0.50;0.50;;;;;;;12.20;89.12;99922.78;6224598;23;20024;-82
2023/09/10 05:58:41;;;;;;;0.50;0.50;;;;;;;12.17;88.48;99929.50;6217492;23;20032;-83
2023/09/10 06:01:09;;;;;;;0.60;0.60;;;;;;;12.13;88.23;99929.13;6190507;23;20031;-84
2023/09/10 06:03:37;;;;;;;0.60;0.60;;;;;;;12.21;88.17;99929.88;6214720;23;20043;-83
2023/09/10 06:06:19;;;;;;;0.50;0.50;;;;;;;12.29;87.46;99932.22;6212948;23;20034;-83
2023/09/10 06:08:46;;;;;;;0.50;0.50;;;;;;;12.33;86.90;99928.81;6218457;23;20020;-83
2023/09/10 06:11:14;;;;;;;0.50;0.50;;;;;;;12.41;86.02;99935.78;6244101;23;20027;-81
2023/09/10 06:13:41;;;;;;;0.50;0.50;;;;;;;12.30;85.57;99933.88;6191988;23;20020;-81
2023/09/10 06:16:10;;;;;;;0.50;0.50;;;;;;;12.29;85.83;99940.34;6242555;23;20016;-82
2023/09/10 06:18:38;;;;;;;0.60;0.60;;;;;;;12.29;85.88;99935.75;6241034;23;20031;-82
2023/09/10 06:21:05;;;;;;;0.60;0.60;;;;;;;12.34;85.85;99933.16;6214168;23;20020;-84
2023/09/10 06:23:33;;;;;;;0.50;0.50;;;;;;;12.43;85.69;99932.81;6215767;23;20063;-82
2023/09/10 06:26:00;;;;;;;0.50;0.50;;;;;;;12.52;85.47;99931.44;6214172;23;20020;-81
2023/09/10 06:28:28;;;;;;;0.55;0.55;;;;;;;12.61;84.90;99934.59;6215086;23;20451;-83
2023/09/10 06:30:56;;;;;;;0.60;0.60;;;;;;;12.63;84.53;99933.28;6212764;23;20020;-82
2023/09/10 06:33:26;;;;;;;0.50;0.50;;;;;;;12.61;84.41;99940.00;6214873;23;20463;-80
2023/09/10 06:35:53;;;;;;;0.50;0.50;;;;;;;12.54;84.67;99946.38;6216771;23;20035;-81
2023/09/10 06:38:21;;;;;;;0.50;0.50;;;;;;;12.56;84.78;99944.25;6191488;23;20051;-83
2023/09/10 06:40:51;;;;;;;0.50;0.50;;;;;;;12.55;84.77;99941.78;6216440;23;20027;-83
2023/09/10 06:43:19;;;;;;;0.60;0.60;;;;;;;12.50;84.84;99934.34;6216720;23;20024;-81
2023/09/10 06:46:00;;;;;;;0.60;0.60;;;;;;;12.60;84.70;99943.78;6217403;23;20090;-83
2023/09/10 06:48:28;;;;;;;0.40;0.40;;;;;;;12.55;84.86;99947.19;6193409;23;20020;-84
2023/09/10 06:51:00;;;;;;;0.50;0.50;;;;;;;12.60;84.86;99943.78;6243291;23;20074;-83
2023/09/10 06:53:29;;;;;;;0.50;0.50;;;;;;;12.60;84.01;99938.38;6242615;23;20059;-82
2023/09/10 06:55:57;;;;;;;0.60;0.60;;;;;;;12.51;83.35;99937.91;6142249;23;20039;-83
2023/09/10 06:58:25;;;;;;;0.50;0.50;;;;;;;12.51;83.71;99946.84;6213054;23;20157;-82
2023/09/10 07:00:53;;;;;;;0.50;0.50;;;;;;;12.61;83.53;99946.28;6239632;23;20044;-81
2023/09/10 07:03:23;;;;;;;0.50;0.50;;;;;;;12.62;83.38;99950.63;6214245;23;20024;-82
2023/09/10 07:05:52;;;;;;;0.50;0.50;;;;;;;12.43;82.99;99941.78;6240212;23;20020;-84
2023/09/10 07:08:24;;;;;;;0.55;0.55;;;;;;;12.53;83.55;99949.31;6215492;23;20024;-83
2023/09/10 07:10:51;;;;;;;0.50;0.50;;;;;;;12.61;83.63;99948.97;6240393;23;20024;-82
2023/09/10 07:13:18;;;;;;;0.50;0.50;;;;;;;12.62;82.66;99947.91;6240686;23;20055;-82
2023/09/10 07:15:48;;;;;;;0.50;0.50;;;;;;;12.52;82.49;99945.78;6212907;23;20044;-82
2023/09/10 07:18:17;;;;;;;0.57;0.57;;;;;;;12.54;82.95;99948.25;6239743;23;20020;-82
2023/09/10 07:20:50;;;;;;;0.50;0.50;;;;;;;12.58;82.62;99941.31;6240476;23;20028;-82
2023/09/10 07:23:18;;;;;;;;;;;;;;;12.55;82.40;99948.00;6240784;23;20091;-81
2023/09/10 07:25:47;;;;;;;0.60;0.60;;;;;;;12.48;82.51;99941.91;6240628;23;19919;-85
2023/09/10 07:28:14;;;;;;;0.50;0.50;;;;;;;12.55;82.50;99939.88;6213883;23;20062;-83
2023/09/10 07:30:41;;;;;;;0.60;0.60;;;;;;;12.69;82.47;99936.97;6212510;23;20027;-82
2023/09/10 07:33:11;;;;;;;0.60;0.60;;;;;;;12.87;82.12;99936.03;6240600;23;20032;-83
2023/09/10 07:35:39;;;;;;;0.50;0.50;;;;;;;12.97;81.71;99941.66;6240640;23;20332;-87
2023/09/10 07:38:06;;;;;;;0.50;0.50;;;;;;;12.96;80.70;99937.28;6240094;23;20057;-85
2023/09/10 07:40:33;;;;;;;0.50;0.50;;;;;;;12.90;80.69;99935.53;6246136;23;20024;-84
2023/09/10 07:43:02;;;;;;;0.50;0.50;;;;;;;12.89;80.84;99940.16;6214866;23;20056;-85
2023/09/10 07:45:31;;;;;;;0.60;0.60;;;;;;;12.98;80.43;99941.41;6239371;23;20047;-83
2023/09/10 07:47:59;;;;;;;0.50;0.50;;;;;;;12.90;80.55;99933.66;6163954;23;20032;-80
2023/09/10 07:50:28;;;;;;;0.60;0.60;;;;;;;13.03;80.06;99935.28;6239945;23;20070;-82
2023/09/10 07:52:56;;;;;;;0.50;0.50;;;;;;;13.17;79.32;99946.72;6239305;23;20411;-82
2023/09/10 07:55:25;;;;;;;0.57;0.57;;;;;;;13.21;79.44;99945.97;6239200;23;20028;-82
2023/09/10 07:57:52;;;;;;;0.60;0.60;;;;;;;13.23;78.67;99948.44;6188714;23;20051;-83
2023/09/10 08:00:23;;;;;;;0.60;0.60;;;;;;;13.20;78.63;99938.09;6188659;23;20020;-82
2023/09/10 08:02:51;;;;;;;0.50;0.50;;;;;;;13.30;78.90;99940.22;6188215;23;20508;-82
2023/09/10 08:05:19;;;;;;;0.60;0.60;;;;;;;13.57;78.47;99948.63;6239706;23;20031;-82
2023/09/10 08:07:46;;;;;;;0.60;0.60;;;;;;;13.63;77.44;99940.34;6213375;23;20090;-83
2023/09/10 08:10:13;;;;;;;0.60;0.60;;;;;;;13.74;77.35;99945.97;6240117;23;20024;-83
2023/09/10 08:12:40;;;;;;;0.50;0.50;;;;;;;13.97;76.53;99953.16;6240320;23;20020;-82
2023/09/10 08:15:08;;;;;;;0.50;0.50;;;;;;;14.05;76.06;99950.06;6240412;23;20016;-83
2023/09/10 08:17:36;;;;;;;0.50;0.50;;;;;;;14.28;75.32;99949.94;6187523;23;20118;-82
2023/09/10 08:20:06;;;;;;;0.60;0.60;;;;;;;14.48;74.48;99937.75;6213517;23;20028;-83
2023/09/10 08:22:37;;;;;;;0.50;0.50;;;;;;;14.64;73.08;99938.84;6214039;23;20016;-83
2023/09/10 08:25:08;;;;;;;0.60;0.60;;;;;;;14.79;72.36;99935.56;6241156;23;20107;-85
2023/09/10 08:31:15;;;;;;;0.57;0.57;;;;;;;14.82;70.70;99937.75;6239093;23;20028;-84
2023/09/10 08:33:42;;;;;;;0.50;0.50;;;;;;;14.98;70.62;99933.34;6234973;23;20035;-85
2023/09/10 08:36:09;;;;;;;0.50;0.50;;;;;;;15.15;69.75;99934.97;6237270;23;20020;-84
2023/09/10 08:38:36;;;;;;;0.57;0.57;;;;;;;15.26;68.94;99922.31;6237731;23;20026;-85
2023/09/10 08:41:29;;;;;;;0.60;0.60;;;;;;;15.50;68.61;99922.88;6209498;23;20040;-84
2023/09/10 08:43:59;;;;;;;0.60;0.60;;;;;;;15.96;66.85;99923.38;6210564;23;20358;-88
2023/09/10 08:46:30;;;;;;;0.50;0.50;;;;;;;16.25;65.40;99918.50;6187679;23;20030;-85
2023/09/10 08:48:59;;;;;;;0.60;0.60;;;;;;;16.32;64.95;99917.44;6210612;23;20044;-84
2023/09/10 08:51:27;;;;;;;0.50;0.50;;;;;;;16.40;63.99;99914.22;6238467;23;20020;-85
2023/09/10 08:53:56;;;;;;;0.60;0.60;;;;;;;16.57;63.36;99919.53;6236451;23;20043;-84
2023/09/10 08:56:25;;;;;;;0.70;0.70;;;;;;;17.35;61.23;99913.44;6237851;23;20028;-83
2023/09/10 08:58:53;;;;;;;0.47;0.47;;;;;;;17.70;59.76;99907.28;6210615;23;20082;-83
2023/09/10 09:01:22;;;;;;;0.63;0.63;;;;;;;17.54;60.18;99907.22;6239479;23;20020;-88
2023/09/10 09:03:52;;;;;;;0.60;0.60;;;;;;;17.76;59.39;99898.00;6247517;23;20086;-85
2023/09/10 09:06:20;;;;;;;0.90;0.90;;;;;;;19.48;54.71;99913.66;6238832;23;20048;-87
2023/09/10 09:08:50;;;;;;;0.50;0.50;;;;;;;19.41;54.29;99902.19;6237972;23;20033;-85
2023/09/10 09:11:24;;;;;;;0.50;0.50;;;;;;;18.65;55.48;99900.50;6238968;23;20597;-84
2023/09/10 09:13:54;;;;;;;0.70;0.70;;;;;;;18.58;55.23;99904.34;6187089;23;20024;-86
2023/09/10 09:16:22;;;;;;;0.80;0.80;;;;;;;19.24;53.81;99900.63;6210995;23;20086;-85
2023/09/10 09:18:50;;;;;;;0.60;0.60;;;;;;;19.85;52.11;99910.47;6185279;23;20395;-86
2023/09/10 09:21:20;;;;;;;0.43;0.43;;;;;;;20.24;50.31;99893.19;6210655;23;20422;-84
2023/09/10 09:23:59;;;;;;;0.80;0.80;;;;;;;20.48;49.94;99898.72;6211350;23;20020;-83
2023/09/10 09:26:33;;;;;;;0.70;0.70;;;;;;;20.84;49.23;99901.16;6239038;23;20107;-85
2023/09/10 09:29:03;;;;;;;0.70;0.70;;;;;;;21.26;47.93;99891.31;6252088;23;20024;-84
2023/09/10 09:31:32;;;;;;;0.70;0.70;;;;;;;21.46;47.33;99890.28;6224384;23;20151;-85
2023/09/10 09:33:59;;;;;;;0.40;0.40;;;;;;;20.75;48.47;99886.44;6235728;23;20034;-85
2023/09/10 09:36:36;;;;;;;0.40;0.40;;;;;;;20.50;49.32;99892.97;6173480;23;20108;-84
2023/09/10 09:39:07;;;;;;;0.80;0.80;;;;;;;21.56;46.29;99886.56;6173792;23;20027;-87
2023/09/10 09:41:35;;;;;;;0.70;0.70;;;;;;;22.16;45.70;99875.75;6174059;23;20071;-84
2023/09/10 09:44:03;;;;;;;0.70;0.70;;;;;;;22.88;43.76;99872.56;6176269;23;20338;-84
2023/09/10 09:46:32;;;;;;;0.60;0.60;;;;;;;23.15;42.94;99888.28;6174106;23;20096;-84
2023/09/10 09:49:00;;;;;;;0.60;0.60;;;;;;;23.49;41.73;99872.44;6174754;23;20096;-84
2023/09/10 09:51:28;;;;;;;0.70;0.70;;;;;;;23.43;41.42;99865.41;6149967;23;20095;-85
2023/09/10 09:53:55;;;;;;;0.70;0.70;;;;;;;23.86;42.11;99876.84;6145791;23;20029;-85
2023/09/10 09:56:23;;;;;;;0.60;0.60;;;;;;;24.27;40.55;99873.09;6149560;23;20025;-85
2023/09/10 09:58:56;;;;;;;0.60;0.60;;;;;;;24.40;40.50;99863.91;6149648;23;20032;-85
2023/09/10 10:01:25;;;;;;;0.70;0.70;;;;;;;24.74;39.69;99868.03;6154140;23;20232;-86
2023/09/10 10:03:54;;;;;;;0.40;0.40;;;;;;;24.30;40.09;99864.16;6174155;23;20025;-85
2023/09/10 10:06:23;;;;;;;0.65;0.65;;;;;;;24.32;39.74;99870.19;6151177;23;20200;-87
2023/09/10 10:08:51;;;;;;;0.60;0.60;;;;;;;24.27;39.73;99864.81;6239031;23;20024;-86
2023/09/10 10:11:29;;;;;;;0.30;0.30;;;;;;;23.78;41.20;99864.63;6239828;23;20020;-85
2023/09/10 10:13:59;;;;;;;0.60;0.60;;;;;;;22.93;42.52;99853.19;6239641;23;20470;-86
2023/09/10 10:16:30;;;;;;;0.60;0.60;;;;;;;23.82;40.71;99864.81;6214623;23;20563;-85
2023/09/10 10:18:58;;;;;;;0.60;0.60;;;;;;;24.23;39.22;99842.56;6240293;23;20047;-85
2023/09/10 10:21:27;;;;;;;0.60;0.60;;;;;;;24.79;38.61;99850.50;6214520;23;20024;-85
2023/09/10 10:23:56;;;;;;;0.60;0.60;;;;;;;24.64;37.81;99844.28;6221708;23;20031;-84
2023/09/10 10:26:24;;;;;;;0.60;0.60;;;;;;;24.85;37.71;99843.69;6177182;23;20004;-85
2023/09/10 10:28:52;;;;;;;0.60;0.60;;;;;;;25.18;37.89;99840.56;6240076;23;20031;-83
2023/09/10 10:31:29;;;;;;;0.60;0.60;;;;;;;25.68;37.64;99831.84;6215002;23;20072;-85
2023/09/10 10:34:08;;;;;;;0.60;0.60;;;;;;;26.30;36.37;99837.00;6241361;23;20056;-85
2023/09/10 10:37:03;;;;;;;0.50;0.50;;;;;;;26.59;36.36;99833.53;6242320;23;20028;-84
2023/09/10 10:39:38;;;;;;;0.50;0.50;;;;;;;26.61;35.93;99833.16;6242472;23;20035;-84
2023/09/10 10:42:09;;;;;;;0.60;0.60;;;;;;;25.27;37.24;99822.88;6243477;23;20016;-84
2023/09/10 10:44:38;;;;;;;0.60;0.60;;;;;;;25.47;37.44;99826.97;6214914;23;20032;-85
2023/09/10 10:47:15;;;;;;;0.55;0.55;;;;;;;26.04;37.14;99814.13;6191936;22;20106;-84
2023/09/10 10:49:52;;;;;;;0.50;0.50;;;;;;;26.86;35.62;99814.00;6214970;23;20031;-85
2023/09/10 10:52:27;;;;;;;0.50;0.50;;;;;;;26.94;34.83;99811.22;6242899;23;20024;-86
2023/09/10 10:54:54;;;;;;;0.50;0.50;;;;;;;26.68;34.78;99818.81;6215281;23;20107;-86
2023/09/10 10:57:27;;;;;;;0.55;0.55;;;;;;;26.62;34.25;99809.09;6243527;23;20030;-84
2023/09/10 10:59:58;;;;;;;0.50;0.50;;;;;;;26.67;35.25;99808.91;6241742;23;20356;-87
2023/09/10 11:02:27;;;;;;;0.50;0.50;;;;;;;26.99;34.68;99801.88;6242031;23;20099;-83
2023/09/10 11:05:03;;;;;;;0.50;0.50;;;;;;;27.48;33.35;99801.44;6215325;23;20020;-84
2023/09/10 11:07:33;;;;;;;0.55;0.55;;;;;;;27.81;33.41;99807.84;6241509;23;20020;-85
2023/09/10 11:10:25;;;;;;;;;;;;;;;28.08;34.25;99798.13;6242553;23;20023;-85
2023/09/10 11:13:08;;;;;;;0.30;0.30;;;;;;;27.52;33.86;99796.81;6243677;23;19967;-86
2023/09/10 11:16:05;;;;;;;0.50;0.50;;;;;;;27.58;33.85;99799.03;6242215;23;20024;-85
2023/09/10 11:18:36;;;;;;;0.50;0.50;;;;;;;27.97;33.35;99785.81;6242601;23;20034;-85
2023/09/10 11:21:07;;;;;;;0.50;0.50;;;;;;;28.22;33.00;99780.34;6214991;23;20036;-84
2023/09/10 11:23:39;;;;;;;0.50;0.50;;;;;;;28.18;33.13;99782.16;6216637;23;20024;-85
2023/09/10 11:26:13;;;;;;;0.50;0.50;;;;;;;28.07;33.08;99777.06;6242861;23;20031;-85
2023/09/10 11:28:49;;;;;;;0.50;0.50;;;;;;;28.59;32.56;99775.66;6242342;23;20020;-86
2023/09/10 11:31:38;;;;;;;0.50;0.50;;;;;;;29.29;32.06;99774.69;6210227;23;20036;-86
2023/09/10 11:34:18;;;;;;;0.50;0.50;;;;;;;29.34;31.01;99775.22;6210081;23;20028;-85
2023/09/10 11:37:04;;;;;;;0.20;0.20;;;;;;;28.45;32.19;99767.66;6185254;23;20106;-94
2023/09/10 11:39:35;;;;;;;0.40;0.40;;;;;;;26.50;34.26;99771.81;6185856;23;20025;-87
2023/09/10 11:42:04;;;;;;;0.50;0.50;;;;;;;26.93;33.47;99767.22;6210613;23;20103;-87
2023/09/10 11:44:35;;;;;;;0.50;0.50;;;;;;;27.46;33.09;99768.50;6211707;23;20024;-86
2023/09/10 11:47:03;;;;;;;0.50;0.50;;;;;;;28.27;32.15;99753.16;6185254;23;20024;-86
2023/09/10 11:49:30;;;;;;;0.50;0.50;;;;;;;28.69;31.16;99754.97;6204330;23;20361;-87